createdAt,value
2023-05-06T00:03:33.093Z,100744.34
2023-05-06T00:08:29.529Z,100749.50
2023-05-06T00:13:25.951Z,100747.66
2023-05-06T00:18:23.651Z,100744.91
2023-05-06T00:23:20.375Z,100746.94
2023-05-06T00:28:16.737Z,100745.00
2023-05-06T00:33:13.095Z,100740.66
2023-05-06T00:38:11.431Z,100759.31
2023-05-06T00:43:08.008Z,100751.09
2023-05-06T00:48:06.157Z,100759.78
2023-05-06T00:53:05.473Z,100759.06
2023-05-06T00:58:02.148Z,100761.63
2023-05-06T01:02:58.787Z,100769.63
2023-05-06T01:08:09.099Z,100772.28
2023-05-06T01:13:29.144Z,100758.22
2023-05-06T01:18:27.046Z,100770.91
2023-05-06T01:23:23.398Z,100761.34
2023-05-06T01:28:19.785Z,100768.91
2023-05-06T01:33:28.379Z,100760.44
2023-05-06T01:38:35.499Z,100765.59
2023-05-06T01:43:38.155Z,100760.25
2023-05-06T01:48:37.483Z,100765.91
2023-05-06T01:53:34.871Z,100777.44
2023-05-06T01:58:31.305Z,100774.09
2023-05-06T02:03:28.230Z,100774.97
2023-05-06T02:08:24.704Z,100782.88
2023-05-06T02:13:21.165Z,100787.50
2023-05-06T02:18:17.491Z,100804.03
2023-05-06T02:23:13.894Z,100809.63
2023-05-06T02:28:10.385Z,100810.94
2023-05-06T02:33:06.898Z,100805.84
2023-05-06T02:38:03.300Z,100812.31
2023-05-06T02:42:59.746Z,100827.88
2023-05-06T02:47:56.339Z,100827.13
2023-05-06T02:52:52.692Z,100821.81
2023-05-06T02:57:49.031Z,100826.41
2023-05-06T03:02:45.978Z,100819.72
2023-05-06T03:07:42.401Z,100836.88
2023-05-06T03:12:38.754Z,100829.69
2023-05-06T03:17:35.130Z,100847.53
2023-05-06T03:22:31.482Z,100852.88
2023-05-06T03:27:27.821Z,100853.53
2023-05-06T03:32:24.302Z,100857.47
2023-05-06T03:37:20.674Z,100860.94
2023-05-06T03:42:17.115Z,100856.59
2023-05-06T03:47:13.695Z,100849.72
2023-05-06T03:52:10.055Z,100852.44
2023-05-06T03:57:06.426Z,100853.84
2023-05-06T04:02:02.986Z,100840.78
2023-05-06T04:06:59.389Z,100854.88
2023-05-06T04:11:55.880Z,100862.69
2023-05-06T04:16:52.251Z,100857.03
2023-05-06T04:21:48.769Z,100852.69
2023-05-06T04:26:45.141Z,100848.59
2023-05-06T04:31:41.568Z,100838.28
2023-05-06T04:36:40.472Z,100832.97
2023-05-06T04:41:37.712Z,100829.22
2023-05-06T04:46:34.055Z,100823.06
2023-05-06T04:51:31.841Z,100823.41
2023-05-06T04:56:28.334Z,100819.75
2023-05-06T05:01:25.165Z,100820.13
2023-05-06T05:06:21.560Z,100816.69
2023-05-06T05:11:17.964Z,100804.97
2023-05-06T05:16:14.318Z,100803.69
2023-05-06T05:21:11.016Z,100792.72
2023-05-06T05:26:07.926Z,100791.88
2023-05-06T05:31:05.442Z,100771.84
2023-05-06T05:36:02.385Z,100747.34
2023-05-06T05:40:58.722Z,100740.91
2023-05-06T05:45:55.144Z,100741.91
2023-05-06T05:50:51.562Z,100744.09
2023-05-06T05:55:47.950Z,100739.56
2023-05-06T06:00:44.264Z,100742.00
2023-05-06T06:05:41.165Z,100740.97
2023-05-06T06:10:37.525Z,100732.28
2023-05-06T06:15:33.932Z,100705.28
2023-05-06T06:20:30.324Z,100694.09
2023-05-06T06:25:26.891Z,100655.78
2023-05-06T06:30:23.294Z,100643.06
2023-05-06T06:35:23.699Z,100638.84
2023-05-06T06:40:21.717Z,100634.97
2023-05-06T06:45:18.693Z,100628.53
2023-05-06T06:50:15.168Z,100610.69
2023-05-06T06:55:11.956Z,100594.44
2023-05-06T07:00:10.558Z,100589.31
2023-05-06T07:05:07.088Z,100584.63
2023-05-06T07:10:03.611Z,100572.19
2023-05-06T07:14:59.962Z,100576.00
2023-05-06T07:19:56.274Z,100563.47
2023-05-06T07:24:52.637Z,100557.59
2023-05-06T07:29:49.033Z,100554.09
2023-05-06T07:34:45.735Z,100555.88
2023-05-06T07:39:43.116Z,100558.19
2023-05-06T07:44:40.109Z,100551.72
2023-05-06T07:49:36.579Z,100553.44
2023-05-06T07:54:33.048Z,100559.63
2023-05-06T07:59:29.446Z,100570.09
2023-05-06T08:04:26.065Z,100580.28
2023-05-06T08:09:23.316Z,100586.59
2023-05-06T08:14:19.740Z,100591.25
2023-05-06T08:19:16.108Z,100589.97
2023-05-06T08:24:13.592Z,100588.72
2023-05-06T08:29:10.004Z,100594.66
2023-05-06T08:34:06.359Z,100605.25
2023-05-06T08:39:03.206Z,100605.38
2023-05-06T08:44:01.924Z,100594.97
2023-05-06T08:48:59.267Z,100599.22
2023-05-06T08:53:59.747Z,100598.63
2023-05-06T08:58:58.412Z,100591.16
2023-05-06T09:03:58.203Z,100590.38
2023-05-06T09:08:54.664Z,100589.91
2023-05-06T09:13:52.150Z,100593.84
2023-05-06T09:18:48.529Z,100593.03
2023-05-06T09:23:45.023Z,100585.41
2023-05-06T09:28:46.856Z,100588.06
2023-05-06T09:33:43.205Z,100574.59
2023-05-06T09:38:42.983Z,100571.13
2023-05-06T09:43:44.657Z,100569.19
2023-05-06T09:48:41.138Z,100563.81
2023-05-06T09:53:38.396Z,100569.22
2023-05-06T09:58:35.796Z,100564.28
2023-05-06T10:03:33.270Z,100561.63
2023-05-06T10:08:30.057Z,100565.41
2023-05-06T10:13:26.966Z,100561.31
2023-05-06T10:18:26.406Z,100559.16
2023-05-06T10:23:35.518Z,100549.16
2023-05-06T10:28:33.553Z,100553.00
2023-05-06T10:33:30.779Z,100547.50
2023-05-06T10:38:35.830Z,100544.47
2023-05-06T10:43:34.151Z,100531.69
2023-05-06T10:48:31.849Z,100533.34
2023-05-06T10:53:56.390Z,100526.66
2023-05-06T10:58:55.674Z,100526.66
2023-05-06T11:03:52.809Z,100528.28
2023-05-06T11:08:57.197Z,100524.97
2023-05-06T11:13:53.635Z,100528.66
2023-05-06T11:18:50.446Z,100518.88
2023-05-06T11:23:47.112Z,100514.47
2023-05-06T11:28:49.704Z,100505.38
2023-05-06T11:33:48.349Z,100500.31
2023-05-06T11:38:52.633Z,100493.97
2023-05-06T11:43:50.913Z,100493.91
2023-05-06T11:48:47.997Z,100491.56
2023-05-06T11:53:44.376Z,100497.13
2023-05-06T11:58:40.837Z,100496.34
2023-05-06T12:03:37.502Z,100492.09
2023-05-06T12:08:35.892Z,100485.38
2023-05-06T12:13:33.767Z,100490.47
2023-05-06T12:18:30.681Z,100499.16
2023-05-06T12:23:27.144Z,100498.66
2023-05-06T12:28:23.708Z,100496.66
2023-05-06T12:33:20.076Z,100487.88
2023-05-06T12:38:17.617Z,100478.75
2023-05-06T12:43:14.098Z,100470.25
2023-05-06T12:48:16.024Z,100471.94
2023-05-06T12:53:13.265Z,100473.84
2023-05-06T12:58:16.650Z,100467.94
2023-05-06T13:03:13.744Z,100465.78
2023-05-06T13:08:10.136Z,100466.06
2023-05-06T13:13:06.706Z,100468.13
2023-05-06T13:18:03.312Z,100462.22
2023-05-06T13:22:59.707Z,100460.22
2023-05-06T13:27:56.035Z,100468.31
2023-05-06T13:32:52.530Z,100459.06
2023-05-06T13:37:48.954Z,100442.00
2023-05-06T13:42:45.291Z,100443.44
2023-05-06T13:47:43.002Z,100441.31
2023-05-06T13:52:39.564Z,100436.16
2023-05-06T13:57:35.984Z,100433.38
2023-05-06T14:02:32.411Z,100423.72
2023-05-06T14:07:28.822Z,100416.56
2023-05-06T14:12:25.340Z,100418.03
2023-05-06T14:17:21.742Z,100409.16
2023-05-06T14:22:18.126Z,100408.06
2023-05-06T14:27:14.621Z,100412.97
2023-05-06T14:32:11.149Z,100407.03
2023-05-06T14:37:07.990Z,100400.50
2023-05-06T14:42:04.477Z,100396.94
2023-05-06T14:47:00.817Z,100396.44
2023-05-06T14:51:57.503Z,100397.88
2023-05-06T14:56:53.859Z,100389.81
2023-05-06T15:01:50.374Z,100406.47
2023-05-06T15:06:46.858Z,100393.06
2023-05-06T15:11:44.180Z,100399.06
2023-05-06T15:16:41.008Z,100391.94
2023-05-06T15:21:37.390Z,100391.66
2023-05-06T15:26:33.719Z,100391.28
2023-05-06T15:31:31.250Z,100390.22
2023-05-06T15:36:27.773Z,100379.53
2023-05-06T15:41:26.889Z,100389.06
2023-05-06T15:46:23.701Z,100387.41
2023-05-06T15:51:20.639Z,100390.28
2023-05-06T15:56:18.977Z,100389.94
2023-05-06T16:01:16.476Z,100390.69
2023-05-06T16:06:15.046Z,100395.94
2023-05-06T16:11:11.820Z,100391.34
2023-05-06T16:16:08.266Z,100396.19
2023-05-06T16:21:04.708Z,100394.97
2023-05-06T16:26:01.158Z,100397.91
2023-05-06T16:30:57.539Z,100384.50
2023-05-06T16:35:53.931Z,100383.50
2023-05-06T16:40:51.125Z,100383.22
2023-05-06T16:45:47.553Z,100379.81
2023-05-06T16:50:43.953Z,100373.72
2023-05-06T16:55:40.282Z,100378.16
2023-05-06T17:00:36.746Z,100381.63
2023-05-06T17:05:33.385Z,100375.00
2023-05-06T17:10:29.950Z,100365.53
2023-05-06T17:15:26.408Z,100375.84
2023-05-06T17:20:23.092Z,100382.28
2023-05-06T17:25:19.703Z,100393.75
2023-05-06T17:30:16.264Z,100391.56
2023-05-06T17:35:13.099Z,100390.13
2023-05-06T17:40:09.937Z,100394.75
2023-05-06T17:45:07.028Z,100397.19
2023-05-06T17:50:03.642Z,100387.88
2023-05-06T17:55:14.845Z,100398.66
2023-05-06T18:00:13.782Z,100400.88
2023-05-06T18:05:10.336Z,100393.91
2023-05-06T18:10:07.940Z,100409.25
2023-05-06T18:15:05.533Z,100403.97
2023-05-06T18:20:02.142Z,100410.38
2023-05-06T18:24:58.564Z,100413.00
2023-05-06T18:29:54.961Z,100422.38
2023-05-06T18:34:51.388Z,100422.50
2023-05-06T18:39:47.850Z,100418.53
2023-05-06T18:44:44.270Z,100420.81
2023-05-06T18:49:40.659Z,100420.25
2023-05-06T18:54:37.125Z,100430.44
2023-05-06T18:59:34.207Z,100433.06
2023-05-06T19:04:31.418Z,100430.31
2023-05-06T19:09:27.978Z,100435.81
2023-05-06T19:14:25.595Z,100443.94
2023-05-06T19:19:22.059Z,100441.25
2023-05-06T19:24:18.495Z,100451.31
2023-05-06T19:29:15.147Z,100458.13
2023-05-06T19:34:11.549Z,100455.53
2023-05-06T19:39:08.403Z,100464.88
2023-05-06T19:44:05.668Z,100458.16
2023-05-06T19:49:02.229Z,100462.25
2023-05-06T19:53:58.696Z,100478.66
2023-05-06T19:58:55.286Z,100487.84
2023-05-06T20:03:51.849Z,100508.47
2023-05-06T20:08:48.412Z,100514.22
2023-05-06T20:13:45.262Z,100515.72
2023-05-06T20:18:42.850Z,100509.13
2023-05-06T20:23:39.293Z,100512.34
2023-05-06T20:28:39.107Z,100511.50
2023-05-06T20:33:35.637Z,100519.28
2023-05-06T20:38:32.579Z,100519.03
2023-05-06T20:43:30.318Z,100516.69
2023-05-06T20:48:27.784Z,100520.78
2023-05-06T20:53:24.230Z,100521.50
2023-05-06T20:58:20.713Z,100511.75
2023-05-06T21:03:17.419Z,100508.41
2023-05-06T21:08:14.077Z,100502.47
2023-05-06T21:13:10.518Z,100499.41
2023-05-06T21:18:06.996Z,100502.94
2023-05-06T21:23:03.861Z,100499.41
2023-05-06T21:28:05.314Z,100495.19
2023-05-06T21:33:02.425Z,100488.31
2023-05-06T21:37:58.811Z,100491.84
2023-05-06T21:42:55.488Z,100486.47
2023-05-06T21:47:51.863Z,100479.44
2023-05-06T21:52:48.253Z,100477.19
2023-05-06T21:57:46.207Z,100472.41
2023-05-06T22:02:42.875Z,100472.13
2023-05-06T22:07:39.298Z,100465.34
2023-05-06T22:12:36.449Z,100463.97
2023-05-06T22:17:34.687Z,100463.50
2023-05-06T22:22:31.082Z,100457.47
2023-05-06T22:27:27.447Z,100453.66
2023-05-06T22:32:23.803Z,100440.84
2023-05-06T22:37:20.552Z,100450.00
2023-05-06T22:42:17.032Z,100451.56
2023-05-06T22:47:13.454Z,100452.09
2023-05-06T22:52:10.003Z,100453.13
2023-05-06T22:57:06.630Z,100451.00
2023-05-06T23:02:03.555Z,100453.53
2023-05-06T23:06:59.889Z,100453.66
2023-05-06T23:11:56.349Z,100451.84
2023-05-06T23:16:53.037Z,100452.38
2023-05-06T23:21:49.476Z,100459.97
2023-05-06T23:26:46.263Z,100459.91
2023-05-06T23:31:42.681Z,100460.91
2023-05-06T23:36:39.162Z,100454.28
2023-05-06T23:41:35.512Z,100453.00
2023-05-06T23:46:31.969Z,100452.28
2023-05-06T23:51:28.416Z,100445.94
2023-05-06T23:56:25.015Z,100442.09
